sensor_id;sensor_type;location;lat;lon;timestamp;P1;durP1;ratioP1;P2;durP2;ratioP2
4837;SDS011;2433;48.768;9.154;2023-03-03T00:02:07;37.00;;;17.43;;
4837;SDS011;2433;48.768;9.154;2023-03-03T00:04:33;29.27;;;17.95;;
4837;SDS011;2433;48.768;9.154;2023-03-03T00:06:58;34.00;;;18.07;;
4837;SDS011;2433;48.768;9.154;2023-03-03T00:09:24;30.60;;;17.13;;
4837;SDS011;2433;48.768;9.154;2023-03-03T00:11:53;38.27;;;19.93;;
4837;SDS011;2433;48.768;9.154;2023-03-03T00:14:30;29.17;;;17.38;;
4837;SDS011;2433;48.768;9.154;2023-03-03T00:16:56;23.33;;;17.35;;
4837;SDS011;2433;48.768;9.154;2023-03-03T00:19:23;28.60;;;15.85;;
4837;SDS011;2433;48.768;9.154;2023-03-03T00:21:49;32.90;;;17.30;;
4837;SDS011;2433;48.768;9.154;2023-03-03T00:24:23;31.63;;;16.83;;
4837;SDS011;2433;48.768;9.154;2023-03-03T00:27:05;30.85;;;18.58;;
4837;SDS011;2433;48.768;9.154;2023-03-03T00:29:44;28.55;;;16.88;;
4837;SDS011;2433;48.768;9.154;2023-03-03T00:34:36;35.87;;;18.07;;
4837;SDS011;2433;48.768;9.154;2023-03-03T00:37:02;29.27;;;18.00;;
4837;SDS011;2433;48.768;9.154;2023-03-03T00:39:33;36.70;;;18.43;;
4837;SDS011;2433;48.768;9.154;2023-03-03T00:42:00;32.53;;;17.90;;
4837;SDS011;2433;48.768;9.154;2023-03-03T00:52:32;29.13;;;17.83;;
4837;SDS011;2433;48.768;9.154;2023-03-03T00:55:00;35.17;;;18.17;;
4837;SDS011;2433;48.768;9.154;2023-03-03T00:57:26;32.10;;;17.33;;
4837;SDS011;2433;48.768;9.154;2023-03-03T00:59:52;39.17;;;19.10;;
4837;SDS011;2433;48.768;9.154;2023-03-03T01:02:18;31.15;;;18.50;;
4837;SDS011;2433;48.768;9.154;2023-03-03T01:04:46;31.27;;;18.00;;
4837;SDS011;2433;48.768;9.154;2023-03-03T01:07:15;34.67;;;20.17;;
4837;SDS011;2433;48.768;9.154;2023-03-03T01:09:40;36.37;;;19.57;;
4837;SDS011;2433;48.768;9.154;2023-03-03T01:12:06;36.97;;;19.60;;
4837;SDS011;2433;48.768;9.154;2023-03-03T01:14:31;28.70;;;17.70;;
4837;SDS011;2433;48.768;9.154;2023-03-03T01:16:57;39.23;;;19.40;;
4837;SDS011;2433;48.768;9.154;2023-03-03T01:19:23;34.67;;;19.67;;
4837;SDS011;2433;48.768;9.154;2023-03-03T01:21:49;30.10;;;16.97;;
4837;SDS011;2433;48.768;9.154;2023-03-03T01:24:15;33.63;;;18.90;;
4837;SDS011;2433;48.768;9.154;2023-03-03T01:26:42;31.40;;;18.00;;
4837;SDS011;2433;48.768;9.154;2023-03-03T01:29:07;35.63;;;19.43;;
4837;SDS011;2433;48.768;9.154;2023-03-03T01:31:33;37.10;;;20.50;;
4837;SDS011;2433;48.768;9.154;2023-03-03T01:33:59;35.07;;;18.80;;
4837;SDS011;2433;48.768;9.154;2023-03-03T01:36:25;35.00;;;18.80;;
4837;SDS011;2433;48.768;9.154;2023-03-03T01:38:51;28.50;;;18.52;;
4837;SDS011;2433;48.768;9.154;2023-03-03T01:41:16;32.77;;;19.00;;
4837;SDS011;2433;48.768;9.154;2023-03-03T01:43:45;39.08;;;21.85;;
4837;SDS011;2433;48.768;9.154;2023-03-03T01:48:52;40.25;;;18.58;;
4837;SDS011;2433;48.768;9.154;2023-03-03T01:51:30;35.05;;;20.20;;
4837;SDS011;2433;48.768;9.154;2023-03-03T01:54:02;31.88;;;17.98;;
4837;SDS011;2433;48.768;9.154;2023-03-03T01:56:30;32.22;;;20.70;;
4837;SDS011;2433;48.768;9.154;2023-03-03T01:59:00;30.53;;;17.67;;
4837;SDS011;2433;48.768;9.154;2023-03-03T02:01:28;33.42;;;18.63;;
4837;SDS011;2433;48.768;9.154;2023-03-03T02:03:55;34.78;;;17.85;;
4837;SDS011;2433;48.768;9.154;2023-03-03T02:06:23;34.28;;;17.98;;
4837;SDS011;2433;48.768;9.154;2023-03-03T02:11:29;30.98;;;18.35;;
4837;SDS011;2433;48.768;9.154;2023-03-03T02:13:55;35.33;;;19.73;;
4837;SDS011;2433;48.768;9.154;2023-03-03T02:16:22;32.92;;;17.67;;
4837;SDS011;2433;48.768;9.154;2023-03-03T02:18:47;43.13;;;19.50;;
4837;SDS011;2433;48.768;9.154;2023-03-03T02:21:14;34.17;;;18.80;;
4837;SDS011;2433;48.768;9.154;2023-03-03T02:26:31;34.72;;;18.80;;
4837;SDS011;2433;48.768;9.154;2023-03-03T02:29:03;35.80;;;17.90;;
4837;SDS011;2433;48.768;9.154;2023-03-03T02:31:29;37.37;;;21.73;;
4837;SDS011;2433;48.768;9.154;2023-03-03T02:33:55;36.95;;;19.40;;
4837;SDS011;2433;48.768;9.154;2023-03-03T02:36:23;35.47;;;19.20;;
4837;SDS011;2433;48.768;9.154;2023-03-03T02:44:20;43.28;;;19.77;;
4837;SDS011;2433;48.768;9.154;2023-03-03T02:46:48;34.78;;;19.75;;
4837;SDS011;2433;48.768;9.154;2023-03-03T02:49:16;42.60;;;20.35;;
4837;SDS011;2433;48.768;9.154;2023-03-03T02:51:43;33.65;;;19.30;;
4837;SDS011;2433;48.768;9.154;2023-03-03T02:54:09;33.00;;;18.23;;
4837;SDS011;2433;48.768;9.154;2023-03-03T02:56:35;42.67;;;19.52;;
4837;SDS011;2433;48.768;9.154;2023-03-03T02:59:01;38.10;;;18.73;;
4837;SDS011;2433;48.768;9.154;2023-03-03T03:01:30;42.33;;;21.95;;
4837;SDS011;2433;48.768;9.154;2023-03-03T03:04:09;33.60;;;18.52;;
4837;SDS011;2433;48.768;9.154;2023-03-03T03:06:41;34.92;;;20.08;;
4837;SDS011;2433;48.768;9.154;2023-03-03T03:09:07;35.28;;;20.08;;
4837;SDS011;2433;48.768;9.154;2023-03-03T03:11:34;34.92;;;20.20;;
4837;SDS011;2433;48.768;9.154;2023-03-03T03:14:01;35.75;;;19.67;;
4837;SDS011;2433;48.768;9.154;2023-03-03T03:16:27;38.80;;;20.10;;
4837;SDS011;2433;48.768;9.154;2023-03-03T03:18:54;34.47;;;20.00;;
4837;SDS011;2433;48.768;9.154;2023-03-03T03:21:20;41.42;;;21.75;;
4837;SDS011;2433;48.768;9.154;2023-03-03T03:23:46;36.67;;;19.50;;
4837;SDS011;2433;48.768;9.154;2023-03-03T03:26:11;40.90;;;20.73;;
4837;SDS011;2433;48.768;9.154;2023-03-03T03:28:37;42.73;;;20.77;;
4837;SDS011;2433;48.768;9.154;2023-03-03T03:31:04;34.65;;;20.15;;
4837;SDS011;2433;48.768;9.154;2023-03-03T03:33:32;37.65;;;19.65;;
4837;SDS011;2433;48.768;9.154;2023-03-03T03:35:58;38.67;;;20.30;;
4837;SDS011;2433;48.768;9.154;2023-03-03T03:38:25;34.80;;;19.85;;
4837;SDS011;2433;48.768;9.154;2023-03-03T03:40:53;39.03;;;20.17;;
4837;SDS011;2433;48.768;9.154;2023-03-03T03:43:18;43.70;;;22.23;;
4837;SDS011;2433;48.768;9.154;2023-03-03T03:45:45;37.95;;;21.15;;
4837;SDS011;2433;48.768;9.154;2023-03-03T03:48:12;38.08;;;19.98;;
4837;SDS011;2433;48.768;9.154;2023-03-03T03:50:38;38.20;;;20.33;;
4837;SDS011;2433;48.768;9.154;2023-03-03T03:53:04;43.30;;;22.50;;
4837;SDS011;2433;48.768;9.154;2023-03-03T03:55:30;36.25;;;19.98;;
4837;SDS011;2433;48.768;9.154;2023-03-03T03:57:56;44.20;;;20.57;;
4837;SDS011;2433;48.768;9.154;2023-03-03T04:00:23;53.90;;;23.05;;
4837;SDS011;2433;48.768;9.154;2023-03-03T04:02:54;35.83;;;21.40;;
4837;SDS011;2433;48.768;9.154;2023-03-03T04:05:20;40.75;;;19.40;;
4837;SDS011;2433;48.768;9.154;2023-03-03T04:07:46;39.25;;;20.60;;
4837;SDS011;2433;48.768;9.154;2023-03-03T04:10:12;39.00;;;21.52;;
4837;SDS011;2433;48.768;9.154;2023-03-03T04:12:38;37.53;;;20.87;;
4837;SDS011;2433;48.768;9.154;2023-03-03T04:15:07;31.65;;;20.90;;
4837;SDS011;2433;48.768;9.154;2023-03-03T04:17:36;40.65;;;21.00;;
4837;SDS011;2433;48.768;9.154;2023-03-03T04:20:02;36.90;;;19.00;;
4837;SDS011;2433;48.768;9.154;2023-03-03T04:22:29;33.25;;;20.40;;
4837;SDS011;2433;48.768;9.154;2023-03-03T04:24:59;33.60;;;19.95;;
4837;SDS011;2433;48.768;9.154;2023-03-03T04:27:31;39.90;;;20.05;;
4837;SDS011;2433;48.768;9.154;2023-03-03T04:30:00;41.42;;;21.75;;
4837;SDS011;2433;48.768;9.154;2023-03-03T04:32:26;40.55;;;21.52;;
4837;SDS011;2433;48.768;9.154;2023-03-03T04:34:52;44.00;;;21.90;;
4837;SDS011;2433;48.768;9.154;2023-03-03T04:37:18;45.88;;;23.60;;
4837;SDS011;2433;48.768;9.154;2023-03-03T04:39:44;42.90;;;21.63;;
4837;SDS011;2433;48.768;9.154;2023-03-03T04:42:10;40.83;;;20.98;;
4837;SDS011;2433;48.768;9.154;2023-03-03T04:44:36;39.80;;;22.67;;
4837;SDS011;2433;48.768;9.154;2023-03-03T04:47:02;42.75;;;22.73;;
4837;SDS011;2433;48.768;9.154;2023-03-03T04:49:29;43.17;;;20.25;;
4837;SDS011;2433;48.768;9.154;2023-03-03T04:51:56;42.47;;;22.27;;
4837;SDS011;2433;48.768;9.154;2023-03-03T04:54:22;39.45;;;18.55;;
4837;SDS011;2433;48.768;9.154;2023-03-03T04:56:48;38.88;;;21.17;;
4837;SDS011;2433;48.768;9.154;2023-03-03T04:59:14;46.37;;;21.63;;
4837;SDS011;2433;48.768;9.154;2023-03-03T05:01:40;32.33;;;18.03;;
4837;SDS011;2433;48.768;9.154;2023-03-03T05:04:06;51.53;;;23.17;;
4837;SDS011;2433;48.768;9.154;2023-03-03T05:06:32;46.95;;;21.63;;
4837;SDS011;2433;48.768;9.154;2023-03-03T05:08:57;39.07;;;21.43;;
4837;SDS011;2433;48.768;9.154;2023-03-03T05:11:23;38.67;;;20.37;;
4837;SDS011;2433;48.768;9.154;2023-03-03T05:13:49;39.40;;;20.07;;
4837;SDS011;2433;48.768;9.154;2023-03-03T05:16:14;35.97;;;20.90;;
4837;SDS011;2433;48.768;9.154;2023-03-03T05:18:40;40.33;;;21.73;;
4837;SDS011;2433;48.768;9.154;2023-03-03T05:21:05;36.23;;;20.27;;
4837;SDS011;2433;48.768;9.154;2023-03-03T05:23:31;36.70;;;22.63;;
4837;SDS011;2433;48.768;9.154;2023-03-03T05:25:57;43.00;;;24.80;;
4837;SDS011;2433;48.768;9.154;2023-03-03T05:28:23;39.07;;;20.80;;
4837;SDS011;2433;48.768;9.154;2023-03-03T05:30:48;34.70;;;18.83;;
4837;SDS011;2433;48.768;9.154;2023-03-03T05:33:14;38.37;;;22.73;;
4837;SDS011;2433;48.768;9.154;2023-03-03T05:35:43;44.95;;;23.83;;
4837;SDS011;2433;48.768;9.154;2023-03-03T05:38:09;41.83;;;21.90;;
4837;SDS011;2433;48.768;9.154;2023-03-03T05:40:34;42.63;;;22.27;;
4837;SDS011;2433;48.768;9.154;2023-03-03T05:43:00;35.00;;;21.03;;
4837;SDS011;2433;48.768;9.154;2023-03-03T05:45:25;37.50;;;23.77;;
4837;SDS011;2433;48.768;9.154;2023-03-03T05:47:51;42.10;;;20.17;;
4837;SDS011;2433;48.768;9.154;2023-03-03T05:50:18;39.47;;;20.33;;
4837;SDS011;2433;48.768;9.154;2023-03-03T05:52:49;38.78;;;20.65;;
4837;SDS011;2433;48.768;9.154;2023-03-03T05:55:15;46.35;;;23.00;;
4837;SDS011;2433;48.768;9.154;2023-03-03T05:57:40;40.67;;;22.63;;
4837;SDS011;2433;48.768;9.154;2023-03-03T06:00:06;41.40;;;21.40;;
4837;SDS011;2433;48.768;9.154;2023-03-03T06:02:38;38.47;;;20.20;;
4837;SDS011;2433;48.768;9.154;2023-03-03T06:05:04;42.88;;;22.40;;
4837;SDS011;2433;48.768;9.154;2023-03-03T06:07:30;47.17;;;22.33;;
4837;SDS011;2433;48.768;9.154;2023-03-03T06:09:56;41.80;;;21.00;;
4837;SDS011;2433;48.768;9.154;2023-03-03T06:12:23;36.88;;;20.25;;
4837;SDS011;2433;48.768;9.154;2023-03-03T06:14:48;34.60;;;18.20;;
4837;SDS011;2433;48.768;9.154;2023-03-03T06:17:14;33.87;;;20.23;;
4837;SDS011;2433;48.768;9.154;2023-03-03T06:19:39;34.50;;;21.93;;
4837;SDS011;2433;48.768;9.154;2023-03-03T06:22:06;33.80;;;21.23;;
4837;SDS011;2433;48.768;9.154;2023-03-03T06:24:32;28.67;;;16.63;;
4837;SDS011;2433;48.768;9.154;2023-03-03T06:26:58;29.60;;;15.60;;
4837;SDS011;2433;48.768;9.154;2023-03-03T06:29:23;26.13;;;16.17;;
4837;SDS011;2433;48.768;9.154;2023-03-03T06:31:49;35.53;;;18.70;;
4837;SDS011;2433;48.768;9.154;2023-03-03T06:34:15;37.00;;;17.70;;
4837;SDS011;2433;48.768;9.154;2023-03-03T06:36:41;36.27;;;17.70;;
4837;SDS011;2433;48.768;9.154;2023-03-03T06:39:06;40.00;;;20.53;;
4837;SDS011;2433;48.768;9.154;2023-03-03T06:41:32;38.43;;;18.63;;
4837;SDS011;2433;48.768;9.154;2023-03-03T06:43:57;23.77;;;16.10;;
4837;SDS011;2433;48.768;9.154;2023-03-03T06:46:24;32.60;;;17.90;;
4837;SDS011;2433;48.768;9.154;2023-03-03T06:48:51;31.80;;;18.38;;
4837;SDS011;2433;48.768;9.154;2023-03-03T06:51:19;27.50;;;18.07;;
4837;SDS011;2433;48.768;9.154;2023-03-03T06:53:48;36.53;;;19.73;;
4837;SDS011;2433;48.768;9.154;2023-03-03T06:56:15;36.30;;;17.73;;
4837;SDS011;2433;48.768;9.154;2023-03-03T06:58:41;27.97;;;16.77;;
4837;SDS011;2433;48.768;9.154;2023-03-03T07:01:12;31.93;;;14.80;;
4837;SDS011;2433;48.768;9.154;2023-03-03T07:03:40;28.05;;;18.38;;
4837;SDS011;2433;48.768;9.154;2023-03-03T07:06:07;31.70;;;19.20;;
4837;SDS011;2433;48.768;9.154;2023-03-03T07:08:41;33.85;;;18.00;;
4837;SDS011;2433;48.768;9.154;2023-03-03T07:11:07;28.77;;;18.27;;
4837;SDS011;2433;48.768;9.154;2023-03-03T07:13:35;30.45;;;17.23;;
4837;SDS011;2433;48.768;9.154;2023-03-03T07:16:05;30.08;;;17.00;;
4837;SDS011;2433;48.768;9.154;2023-03-03T07:18:39;34.65;;;17.00;;
4837;SDS011;2433;48.768;9.154;2023-03-03T07:21:27;27.98;;;17.95;;
4837;SDS011;2433;48.768;9.154;2023-03-03T07:23:56;38.92;;;18.83;;
4837;SDS011;2433;48.768;9.154;2023-03-03T07:26:27;35.75;;;16.25;;
4837;SDS011;2433;48.768;9.154;2023-03-03T07:28:59;39.00;;;18.58;;
4837;SDS011;2433;48.768;9.154;2023-03-03T07:31:27;32.40;;;16.83;;
4837;SDS011;2433;48.768;9.154;2023-03-03T07:34:09;28.35;;;17.27;;
4837;SDS011;2433;48.768;9.154;2023-03-03T07:36:41;30.17;;;17.13;;
4837;SDS011;2433;48.768;9.154;2023-03-03T07:42:01;31.45;;;17.80;;
4837;SDS011;2433;48.768;9.154;2023-03-03T07:44:34;28.55;;;15.93;;
4837;SDS011;2433;48.768;9.154;2023-03-03T07:47:11;34.45;;;19.00;;
4837;SDS011;2433;48.768;9.154;2023-03-03T07:49:42;29.75;;;19.50;;
4837;SDS011;2433;48.768;9.154;2023-03-03T07:54:50;33.13;;;20.83;;
4837;SDS011;2433;48.768;9.154;2023-03-03T07:57:21;33.63;;;18.42;;
4837;SDS011;2433;48.768;9.154;2023-03-03T07:59:48;32.08;;;19.10;;
4837;SDS011;2433;48.768;9.154;2023-03-03T08:07:57;31.77;;;17.55;;
4837;SDS011;2433;48.768;9.154;2023-03-03T08:10:30;31.85;;;18.35;;
4837;SDS011;2433;48.768;9.154;2023-03-03T08:13:07;34.38;;;18.30;;
4837;SDS011;2433;48.768;9.154;2023-03-03T08:15:37;38.13;;;20.00;;
4837;SDS011;2433;48.768;9.154;2023-03-03T08:18:07;38.80;;;19.97;;
4837;SDS011;2433;48.768;9.154;2023-03-03T08:20:51;32.55;;;20.65;;
4837;SDS011;2433;48.768;9.154;2023-03-03T08:23:19;29.17;;;16.67;;
4837;SDS011;2433;48.768;9.154;2023-03-03T08:25:45;30.35;;;17.45;;
4837;SDS011;2433;48.768;9.154;2023-03-03T08:28:13;36.40;;;19.20;;
4837;SDS011;2433;48.768;9.154;2023-03-03T08:30:39;26.10;;;16.90;;
4837;SDS011;2433;48.768;9.154;2023-03-03T08:33:05;41.43;;;20.03;;
4837;SDS011;2433;48.768;9.154;2023-03-03T08:35:31;34.20;;;19.67;;
4837;SDS011;2433;48.768;9.154;2023-03-03T08:37:56;28.40;;;17.03;;
4837;SDS011;2433;48.768;9.154;2023-03-03T08:40:22;40.33;;;20.53;;
4837;SDS011;2433;48.768;9.154;2023-03-03T08:42:47;34.17;;;18.00;;
4837;SDS011;2433;48.768;9.154;2023-03-03T08:45:13;28.67;;;15.83;;
4837;SDS011;2433;48.768;9.154;2023-03-03T08:47:38;29.33;;;16.70;;
4837;SDS011;2433;48.768;9.154;2023-03-03T08:50:05;33.23;;;17.10;;
4837;SDS011;2433;48.768;9.154;2023-03-03T08:52:30;24.83;;;16.92;;
4837;SDS011;2433;48.768;9.154;2023-03-03T08:54:56;34.87;;;19.30;;
4837;SDS011;2433;48.768;9.154;2023-03-03T08:57:22;29.53;;;17.27;;
4837;SDS011;2433;48.768;9.154;2023-03-03T08:59:47;28.80;;;17.90;;
4837;SDS011;2433;48.768;9.154;2023-03-03T09:02:13;22.20;;;16.90;;
4837;SDS011;2433;48.768;9.154;2023-03-03T09:04:38;28.77;;;17.00;;
4837;SDS011;2433;48.768;9.154;2023-03-03T09:07:04;28.73;;;16.87;;
4837;SDS011;2433;48.768;9.154;2023-03-03T09:09:30;26.30;;;17.03;;
4837;SDS011;2433;48.768;9.154;2023-03-03T09:12:00;22.97;;;15.40;;
4837;SDS011;2433;48.768;9.154;2023-03-03T09:14:31;20.40;;;14.05;;
4837;SDS011;2433;48.768;9.154;2023-03-03T09:16:57;22.87;;;14.50;;
4837;SDS011;2433;48.768;9.154;2023-03-03T09:19:27;29.90;;;15.40;;
4837;SDS011;2433;48.768;9.154;2023-03-03T09:21:55;24.98;;;14.95;;
4837;SDS011;2433;48.768;9.154;2023-03-03T09:24:29;24.92;;;15.90;;
4837;SDS011;2433;48.768;9.154;2023-03-03T09:26:55;23.52;;;14.73;;
4837;SDS011;2433;48.768;9.154;2023-03-03T09:29:25;25.40;;;15.32;;
4837;SDS011;2433;48.768;9.154;2023-03-03T09:31:56;22.88;;;14.77;;
4837;SDS011;2433;48.768;9.154;2023-03-03T09:34:38;24.45;;;14.32;;
4837;SDS011;2433;48.768;9.154;2023-03-03T09:40:01;28.42;;;16.52;;
4837;SDS011;2433;48.768;9.154;2023-03-03T09:47:52;25.27;;;17.60;;
4837;SDS011;2433;48.768;9.154;2023-03-03T09:53:36;28.25;;;16.88;;
4837;SDS011;2433;48.768;9.154;2023-03-03T09:59:22;25.92;;;17.67;;
4837;SDS011;2433;48.768;9.154;2023-03-03T10:17:51;24.70;;;18.02;;
4837;SDS011;2433;48.768;9.154;2023-03-03T10:25:59;35.38;;;21.27;;
4837;SDS011;2433;48.768;9.154;2023-03-03T10:31:22;25.25;;;16.02;;
4837;SDS011;2433;48.768;9.154;2023-03-03T10:34:06;32.77;;;18.17;;
4837;SDS011;2433;48.768;9.154;2023-03-03T10:37:06;30.50;;;19.95;;
4837;SDS011;2433;48.768;9.154;2023-03-03T10:48:04;26.83;;;16.75;;
4837;SDS011;2433;48.768;9.154;2023-03-03T10:53:21;25.83;;;18.45;;
4837;SDS011;2433;48.768;9.154;2023-03-03T11:01:39;26.23;;;16.52;;
4837;SDS011;2433;48.768;9.154;2023-03-03T11:04:18;28.40;;;18.43;;
4837;SDS011;2433;48.768;9.154;2023-03-03T11:06:50;26.80;;;18.50;;
4837;SDS011;2433;48.768;9.154;2023-03-03T11:11:59;27.00;;;19.23;;
4837;SDS011;2433;48.768;9.154;2023-03-03T11:20:37;28.43;;;18.00;;
4837;SDS011;2433;48.768;9.154;2023-03-03T11:28:12;32.97;;;20.50;;
4837;SDS011;2433;48.768;9.154;2023-03-03T11:31:04;27.13;;;19.40;;
4837;SDS011;2433;48.768;9.154;2023-03-03T11:36:25;29.77;;;20.97;;
4837;SDS011;2433;48.768;9.154;2023-03-03T11:39:01;24.67;;;18.70;;
4837;SDS011;2433;48.768;9.154;2023-03-03T11:52:50;28.17;;;17.47;;
4837;SDS011;2433;48.768;9.154;2023-03-03T12:03:16;30.73;;;19.13;;
4837;SDS011;2433;48.768;9.154;2023-03-03T12:06:01;27.27;;;16.60;;
4837;SDS011;2433;48.768;9.154;2023-03-03T12:16:49;33.77;;;18.10;;
4837;SDS011;2433;48.768;9.154;2023-03-03T12:27:33;29.70;;;17.90;;
4837;SDS011;2433;48.768;9.154;2023-03-03T12:41:34;21.97;;;13.90;;
4837;SDS011;2433;48.768;9.154;2023-03-03T12:49:23;25.97;;;16.50;;
4837;SDS011;2433;48.768;9.154;2023-03-03T13:02:52;23.53;;;15.67;;
4837;SDS011;2433;48.768;9.154;2023-03-03T13:05:26;22.67;;;16.20;;
4837;SDS011;2433;48.768;9.154;2023-03-03T13:07:59;25.00;;;17.40;;
4837;SDS011;2433;48.768;9.154;2023-03-03T13:10:50;25.80;;;17.47;;
4837;SDS011;2433;48.768;9.154;2023-03-03T13:13:43;24.70;;;17.23;;
4837;SDS011;2433;48.768;9.154;2023-03-03T13:16:20;26.33;;;17.50;;
4837;SDS011;2433;48.768;9.154;2023-03-03T13:21:54;23.83;;;15.60;;
4837;SDS011;2433;48.768;9.154;2023-03-03T13:25:06;22.93;;;15.77;;
4837;SDS011;2433;48.768;9.154;2023-03-03T13:27:38;26.67;;;19.03;;
4837;SDS011;2433;48.768;9.154;2023-03-03T13:35:54;29.63;;;16.70;;
4837;SDS011;2433;48.768;9.154;2023-03-03T13:38:36;25.30;;;16.80;;
4837;SDS011;2433;48.768;9.154;2023-03-03T13:47:06;24.13;;;16.33;;
4837;SDS011;2433;48.768;9.154;2023-03-03T13:49:58;25.77;;;16.57;;
4837;SDS011;2433;48.768;9.154;2023-03-03T13:52:31;26.17;;;17.00;;
4837;SDS011;2433;48.768;9.154;2023-03-03T14:00:18;22.30;;;16.43;;
4837;SDS011;2433;48.768;9.154;2023-03-03T14:05:49;26.10;;;19.30;;
4837;SDS011;2433;48.768;9.154;2023-03-03T14:13:37;26.40;;;19.23;;
4837;SDS011;2433;48.768;9.154;2023-03-03T14:16:04;27.23;;;16.07;;
4837;SDS011;2433;48.768;9.154;2023-03-03T14:19:16;26.23;;;17.10;;
4837;SDS011;2433;48.768;9.154;2023-03-03T14:21:26;26.57;;;15.70;;
4837;SDS011;2433;48.768;9.154;2023-03-03T14:31:50;21.80;;;17.63;;
4837;SDS011;2433;48.768;9.154;2023-03-03T14:36:48;28.17;;;16.17;;
4837;SDS011;2433;48.768;9.154;2023-03-03T14:39:26;26.77;;;18.20;;
4837;SDS011;2433;48.768;9.154;2023-03-03T14:41:56;24.83;;;16.17;;
4837;SDS011;2433;48.768;9.154;2023-03-03T14:44:25;29.53;;;17.20;;
4837;SDS011;2433;48.768;9.154;2023-03-03T14:47:37;22.43;;;15.87;;
4837;SDS011;2433;48.768;9.154;2023-03-03T14:49:46;30.83;;;18.00;;
4837;SDS011;2433;48.768;9.154;2023-03-03T14:54:40;29.40;;;17.50;;
4837;SDS011;2433;48.768;9.154;2023-03-03T14:57:41;28.63;;;17.60;;
4837;SDS011;2433;48.768;9.154;2023-03-03T15:00:02;27.53;;;16.80;;
4837;SDS011;2433;48.768;9.154;2023-03-03T15:05:12;26.03;;;16.87;;
4837;SDS011;2433;48.768;9.154;2023-03-03T15:07:41;26.50;;;17.70;;
4837;SDS011;2433;48.768;9.154;2023-03-03T15:10:09;25.33;;;15.80;;
4837;SDS011;2433;48.768;9.154;2023-03-03T15:12:38;23.83;;;16.13;;
4837;SDS011;2433;48.768;9.154;2023-03-03T15:17:37;24.90;;;16.63;;
4837;SDS011;2433;48.768;9.154;2023-03-03T15:22:51;27.10;;;14.77;;
4837;SDS011;2433;48.768;9.154;2023-03-03T15:28:38;23.67;;;16.83;;
4837;SDS011;2433;48.768;9.154;2023-03-03T15:31:27;26.70;;;17.30;;
4837;SDS011;2433;48.768;9.154;2023-03-03T15:34:01;24.57;;;16.13;;
4837;SDS011;2433;48.768;9.154;2023-03-03T15:46:43;30.53;;;17.47;;
4837;SDS011;2433;48.768;9.154;2023-03-03T15:54:52;27.00;;;17.60;;
4837;SDS011;2433;48.768;9.154;2023-03-03T15:57:48;25.90;;;16.93;;
4837;SDS011;2433;48.768;9.154;2023-03-03T16:03:08;22.63;;;15.43;;
4837;SDS011;2433;48.768;9.154;2023-03-03T16:11:16;24.23;;;15.30;;
4837;SDS011;2433;48.768;9.154;2023-03-03T16:16:29;31.60;;;16.40;;
4837;SDS011;2433;48.768;9.154;2023-03-03T16:19:02;29.13;;;18.70;;
4837;SDS011;2433;48.768;9.154;2023-03-03T16:24:30;26.50;;;16.90;;
4837;SDS011;2433;48.768;9.154;2023-03-03T16:27:05;27.27;;;16.70;;
4837;SDS011;2433;48.768;9.154;2023-03-03T16:34:54;29.53;;;17.37;;
4837;SDS011;2433;48.768;9.154;2023-03-03T16:37:31;32.93;;;18.37;;
4837;SDS011;2433;48.768;9.154;2023-03-03T16:40:14;37.80;;;18.83;;
4837;SDS011;2433;48.768;9.154;2023-03-03T16:42:44;32.00;;;17.00;;
4837;SDS011;2433;48.768;9.154;2023-03-03T16:45:32;32.30;;;17.37;;
4837;SDS011;2433;48.768;9.154;2023-03-03T16:48:06;29.30;;;18.37;;
4837;SDS011;2433;48.768;9.154;2023-03-03T16:50:53;32.57;;;17.87;;
4837;SDS011;2433;48.768;9.154;2023-03-03T16:53:35;26.37;;;17.10;;
4837;SDS011;2433;48.768;9.154;2023-03-03T17:04:46;28.87;;;18.30;;
4837;SDS011;2433;48.768;9.154;2023-03-03T17:10:19;30.47;;;17.30;;
4837;SDS011;2433;48.768;9.154;2023-03-03T17:13:04;28.20;;;17.17;;
4837;SDS011;2433;48.768;9.154;2023-03-03T17:18:42;25.57;;;14.87;;
4837;SDS011;2433;48.768;9.154;2023-03-03T17:24:01;33.97;;;17.37;;
4837;SDS011;2433;48.768;9.154;2023-03-03T17:26:36;24.50;;;16.20;;
4837;SDS011;2433;48.768;9.154;2023-03-03T17:37:17;30.90;;;17.70;;
4837;SDS011;2433;48.768;9.154;2023-03-03T17:43:03;27.77;;;17.87;;
4837;SDS011;2433;48.768;9.154;2023-03-03T17:45:35;29.63;;;19.10;;
4837;SDS011;2433;48.768;9.154;2023-03-03T17:51:04;32.40;;;17.50;;
4837;SDS011;2433;48.768;9.154;2023-03-03T17:56:23;28.37;;;17.60;;
4837;SDS011;2433;48.768;9.154;2023-03-03T18:01:34;31.47;;;17.23;;
4837;SDS011;2433;48.768;9.154;2023-03-03T18:18:02;28.90;;;17.13;;
4837;SDS011;2433;48.768;9.154;2023-03-03T18:21:03;30.10;;;17.90;;
4837;SDS011;2433;48.768;9.154;2023-03-03T18:31:42;27.73;;;15.87;;
4837;SDS011;2433;48.768;9.154;2023-03-03T18:39:49;30.80;;;19.47;;
4837;SDS011;2433;48.768;9.154;2023-03-03T18:42:35;29.07;;;18.50;;
4837;SDS011;2433;48.768;9.154;2023-03-03T18:50:36;33.50;;;20.07;;
4837;SDS011;2433;48.768;9.154;2023-03-03T18:55:38;30.90;;;19.07;;
4837;SDS011;2433;48.768;9.154;2023-03-03T19:00:56;34.00;;;20.83;;
4837;SDS011;2433;48.768;9.154;2023-03-03T19:05:57;31.83;;;17.90;;
4837;SDS011;2433;48.768;9.154;2023-03-03T19:14:13;31.87;;;19.20;;
4837;SDS011;2433;48.768;9.154;2023-03-03T19:16:39;35.47;;;19.77;;
4837;SDS011;2433;48.768;9.154;2023-03-03T19:19:07;34.23;;;21.43;;
4837;SDS011;2433;48.768;9.154;2023-03-03T19:21:36;33.87;;;18.33;;
4837;SDS011;2433;48.768;9.154;2023-03-03T19:38:19;35.30;;;18.70;;
4837;SDS011;2433;48.768;9.154;2023-03-03T19:46:23;28.80;;;18.63;;
4837;SDS011;2433;48.768;9.154;2023-03-03T19:49:04;33.83;;;17.90;;
4837;SDS011;2433;48.768;9.154;2023-03-03T19:51:39;32.10;;;18.80;;
4837;SDS011;2433;48.768;9.154;2023-03-03T19:54:13;28.00;;;18.65;;
4837;SDS011;2433;48.768;9.154;2023-03-03T19:56:47;31.63;;;19.17;;
4837;SDS011;2433;48.768;9.154;2023-03-03T19:59:21;32.70;;;19.33;;
4837;SDS011;2433;48.768;9.154;2023-03-03T20:02:00;31.20;;;19.17;;
4837;SDS011;2433;48.768;9.154;2023-03-03T20:10:12;29.60;;;17.20;;
4837;SDS011;2433;48.768;9.154;2023-03-03T20:21:05;27.08;;;15.27;;
4837;SDS011;2433;48.768;9.154;2023-03-03T20:26:22;29.15;;;16.75;;
4837;SDS011;2433;48.768;9.154;2023-03-03T20:32:28;26.25;;;15.95;;
4837;SDS011;2433;48.768;9.154;2023-03-03T20:35:11;30.33;;;16.88;;
4837;SDS011;2433;48.768;9.154;2023-03-03T20:38:02;31.90;;;15.88;;
4837;SDS011;2433;48.768;9.154;2023-03-03T20:43:37;24.23;;;14.48;;
4837;SDS011;2433;48.768;9.154;2023-03-03T20:46:14;27.45;;;15.90;;
4837;SDS011;2433;48.768;9.154;2023-03-03T20:51:39;25.83;;;15.97;;
4837;SDS011;2433;48.768;9.154;2023-03-03T21:04:42;24.52;;;15.75;;
4837;SDS011;2433;48.768;9.154;2023-03-03T21:07:07;31.40;;;16.20;;
4837;SDS011;2433;48.768;9.154;2023-03-03T21:09:34;24.67;;;14.83;;
4837;SDS011;2433;48.768;9.154;2023-03-03T21:12:05;28.58;;;15.40;;
4837;SDS011;2433;48.768;9.154;2023-03-03T21:14:35;32.38;;;15.75;;
4837;SDS011;2433;48.768;9.154;2023-03-03T21:22:42;22.40;;;14.38;;
4837;SDS011;2433;48.768;9.154;2023-03-03T21:25:10;24.20;;;14.70;;
4837;SDS011;2433;48.768;9.154;2023-03-03T21:27:37;25.35;;;14.80;;
4837;SDS011;2433;48.768;9.154;2023-03-03T21:32:38;33.50;;;17.50;;
4837;SDS011;2433;48.768;9.154;2023-03-03T21:35:05;27.75;;;14.95;;
4837;SDS011;2433;48.768;9.154;2023-03-03T21:40:28;23.00;;;14.05;;
4837;SDS011;2433;48.768;9.154;2023-03-03T21:42:55;30.42;;;16.52;;
4837;SDS011;2433;48.768;9.154;2023-03-03T21:45:22;27.92;;;14.20;;
4837;SDS011;2433;48.768;9.154;2023-03-03T21:47:49;21.17;;;13.57;;
4837;SDS011;2433;48.768;9.154;2023-03-03T21:50:16;28.27;;;16.13;;
4837;SDS011;2433;48.768;9.154;2023-03-03T21:52:44;24.00;;;14.50;;
4837;SDS011;2433;48.768;9.154;2023-03-03T21:55:10;22.17;;;13.20;;
4837;SDS011;2433;48.768;9.154;2023-03-03T21:57:35;25.70;;;15.27;;